sensor_id;sensor_type;location;lat;lon;timestamp;P1;durP1;ratioP1;P2;durP2;ratioP2
66020;SDS011;52789;59.980;30.346;2022-10-16T00:01:59;17.00;;;11.37;;
66020;SDS011;52789;59.980;30.346;2022-10-16T00:04:25;13.93;;;9.97;;
66020;SDS011;52789;59.980;30.346;2022-10-16T00:06:50;15.07;;;10.10;;
66020;SDS011;52789;59.980;30.346;2022-10-16T00:09:16;15.53;;;10.83;;
66020;SDS011;52789;59.980;30.346;2022-10-16T00:11:41;14.13;;;10.90;;
66020;SDS011;52789;59.980;30.346;2022-10-16T00:14:08;13.57;;;9.60;;
66020;SDS011;52789;59.980;30.346;2022-10-16T00:16:37;12.73;;;10.07;;
66020;SDS011;52789;59.980;30.346;2022-10-16T00:19:03;15.20;;;10.47;;
66020;SDS011;52789;59.980;30.346;2022-10-16T00:21:30;13.40;;;9.93;;
66020;SDS011;52789;59.980;30.346;2022-10-16T00:24:15;16.10;;;9.77;;
66020;SDS011;52789;59.980;30.346;2022-10-16T00:26:40;17.13;;;9.60;;
66020;SDS011;52789;59.980;30.346;2022-10-16T00:29:06;13.40;;;10.10;;
66020;SDS011;52789;59.980;30.346;2022-10-16T00:31:34;12.25;;;10.18;;
66020;SDS011;52789;59.980;30.346;2022-10-16T00:34:00;13.43;;;9.57;;
66020;SDS011;52789;59.980;30.346;2022-10-16T00:36:26;16.13;;;10.50;;
66020;SDS011;52789;59.980;30.346;2022-10-16T00:38:52;17.20;;;10.07;;
66020;SDS011;52789;59.980;30.346;2022-10-16T00:41:20;14.33;;;9.90;;
66020;SDS011;52789;59.980;30.346;2022-10-16T00:43:51;14.93;;;10.35;;
66020;SDS011;52789;59.980;30.346;2022-10-16T00:46:22;13.03;;;9.57;;
66020;SDS011;52789;59.980;30.346;2022-10-16T00:51:30;13.83;;;10.30;;
66020;SDS011;52789;59.980;30.346;2022-10-16T00:53:59;18.07;;;10.13;;
66020;SDS011;52789;59.980;30.346;2022-10-16T00:56:27;11.90;;;10.30;;
66020;SDS011;52789;59.980;30.346;2022-10-16T00:58:52;13.90;;;9.03;;
66020;SDS011;52789;59.980;30.346;2022-10-16T01:01:18;16.83;;;10.60;;
66020;SDS011;52789;59.980;30.346;2022-10-16T01:03:44;16.67;;;9.63;;
66020;SDS011;52789;59.980;30.346;2022-10-16T01:11:23;10.97;;;9.17;;
66020;SDS011;52789;59.980;30.346;2022-10-16T01:13:57;13.10;;;9.60;;
66020;SDS011;52789;59.980;30.346;2022-10-16T01:19:10;13.47;;;9.47;;
66020;SDS011;52789;59.980;30.346;2022-10-16T01:21:40;28.03;;;11.00;;
66020;SDS011;52789;59.980;30.346;2022-10-16T01:27:24;19.67;;;10.53;;
66020;SDS011;52789;59.980;30.346;2022-10-16T01:29:54;13.83;;;10.13;;
66020;SDS011;52789;59.980;30.346;2022-10-16T01:32:35;16.03;;;9.77;;
66020;SDS011;52789;59.980;30.346;2022-10-16T01:35:14;13.60;;;9.53;;
66020;SDS011;52789;59.980;30.346;2022-10-16T01:37:51;12.97;;;9.57;;
66020;SDS011;52789;59.980;30.346;2022-10-16T01:40:24;16.87;;;10.00;;
66020;SDS011;52789;59.980;30.346;2022-10-16T01:45:21;13.07;;;8.98;;
66020;SDS011;52789;59.980;30.346;2022-10-16T01:47:47;13.43;;;9.97;;
66020;SDS011;52789;59.980;30.346;2022-10-16T01:50:15;14.13;;;10.10;;
66020;SDS011;52789;59.980;30.346;2022-10-16T01:52:43;17.63;;;10.15;;
66020;SDS011;52789;59.980;30.346;2022-10-16T01:55:14;13.07;;;9.90;;
66020;SDS011;52789;59.980;30.346;2022-10-16T01:57:42;15.85;;;10.70;;
66020;SDS011;52789;59.980;30.346;2022-10-16T02:00:12;17.80;;;10.80;;
66020;SDS011;52789;59.980;30.346;2022-10-16T02:02:42;14.70;;;10.53;;
66020;SDS011;52789;59.980;30.346;2022-10-16T02:05:56;16.13;;;10.80;;
66020;SDS011;52789;59.980;30.346;2022-10-16T02:08:05;18.20;;;11.07;;
66020;SDS011;52789;59.980;30.346;2022-10-16T02:10:31;15.27;;;11.33;;
66020;SDS011;52789;59.980;30.346;2022-10-16T02:12:59;16.43;;;11.03;;
66020;SDS011;52789;59.980;30.346;2022-10-16T02:15:51;15.30;;;10.67;;
66020;SDS011;52789;59.980;30.346;2022-10-16T02:18:16;12.03;;;10.17;;
66020;SDS011;52789;59.980;30.346;2022-10-16T02:23:24;13.20;;;10.27;;
66020;SDS011;52789;59.980;30.346;2022-10-16T02:26:17;16.03;;;11.87;;
66020;SDS011;52789;59.980;30.346;2022-10-16T02:28:52;14.03;;;10.23;;
66020;SDS011;52789;59.980;30.346;2022-10-16T02:31:24;16.23;;;10.53;;
66020;SDS011;52789;59.980;30.346;2022-10-16T02:33:52;17.40;;;11.30;;
66020;SDS011;52789;59.980;30.346;2022-10-16T02:36:23;19.53;;;11.33;;
66020;SDS011;52789;59.980;30.346;2022-10-16T02:38:50;13.57;;;10.27;;
66020;SDS011;52789;59.980;30.346;2022-10-16T02:41:16;13.17;;;9.67;;
66020;SDS011;52789;59.980;30.346;2022-10-16T02:43:41;15.90;;;10.77;;
66020;SDS011;52789;59.980;30.346;2022-10-16T02:46:07;14.70;;;10.67;;
66020;SDS011;52789;59.980;30.346;2022-10-16T02:48:32;12.33;;;9.60;;
66020;SDS011;52789;59.980;30.346;2022-10-16T02:50:58;14.83;;;10.27;;
66020;SDS011;52789;59.980;30.346;2022-10-16T02:53:23;17.17;;;10.70;;
66020;SDS011;52789;59.980;30.346;2022-10-16T02:55:49;13.50;;;10.03;;
66020;SDS011;52789;59.980;30.346;2022-10-16T02:58:14;19.00;;;11.53;;
66020;SDS011;52789;59.980;30.346;2022-10-16T03:00:40;16.30;;;10.97;;
66020;SDS011;52789;59.980;30.346;2022-10-16T03:03:07;19.70;;;11.70;;
66020;SDS011;52789;59.980;30.346;2022-10-16T03:05:32;17.50;;;11.20;;
66020;SDS011;52789;59.980;30.346;2022-10-16T03:07:57;17.83;;;11.40;;
66020;SDS011;52789;59.980;30.346;2022-10-16T03:10:25;15.03;;;10.77;;
66020;SDS011;52789;59.980;30.346;2022-10-16T03:12:51;18.30;;;10.33;;
66020;SDS011;52789;59.980;30.346;2022-10-16T03:15:16;18.03;;;9.93;;
66020;SDS011;52789;59.980;30.346;2022-10-16T03:17:42;15.70;;;10.10;;
66020;SDS011;52789;59.980;30.346;2022-10-16T03:20:08;16.13;;;10.37;;
66020;SDS011;52789;59.980;30.346;2022-10-16T03:22:34;13.30;;;9.50;;
66020;SDS011;52789;59.980;30.346;2022-10-16T03:25:00;13.33;;;10.37;;
66020;SDS011;52789;59.980;30.346;2022-10-16T03:27:26;14.73;;;10.10;;
66020;SDS011;52789;59.980;30.346;2022-10-16T03:29:51;14.07;;;10.20;;
66020;SDS011;52789;59.980;30.346;2022-10-16T03:32:17;15.60;;;10.30;;
66020;SDS011;52789;59.980;30.346;2022-10-16T03:34:46;15.32;;;10.27;;
66020;SDS011;52789;59.980;30.346;2022-10-16T03:37:12;15.00;;;10.07;;
66020;SDS011;52789;59.980;30.346;2022-10-16T03:39:37;12.70;;;10.23;;
66020;SDS011;52789;59.980;30.346;2022-10-16T03:42:03;16.47;;;9.77;;
66020;SDS011;52789;59.980;30.346;2022-10-16T03:47:32;14.50;;;10.10;;
66020;SDS011;52789;59.980;30.346;2022-10-16T03:50:10;12.37;;;9.57;;
66020;SDS011;52789;59.980;30.346;2022-10-16T03:52:47;13.93;;;10.07;;
66020;SDS011;52789;59.980;30.346;2022-10-16T03:55:50;18.40;;;10.50;;
66020;SDS011;52789;59.980;30.346;2022-10-16T04:04:53;16.67;;;9.87;;
66020;SDS011;52789;59.980;30.346;2022-10-16T04:07:19;16.50;;;11.07;;
66020;SDS011;52789;59.980;30.346;2022-10-16T04:09:48;17.67;;;10.40;;
66020;SDS011;52789;59.980;30.346;2022-10-16T04:12:14;13.80;;;11.10;;
66020;SDS011;52789;59.980;30.346;2022-10-16T04:14:40;16.90;;;11.07;;
66020;SDS011;52789;59.980;30.346;2022-10-16T04:17:08;15.13;;;10.93;;
66020;SDS011;52789;59.980;30.346;2022-10-16T04:19:34;15.97;;;11.13;;
66020;SDS011;52789;59.980;30.346;2022-10-16T04:22:00;19.07;;;12.07;;
66020;SDS011;52789;59.980;30.346;2022-10-16T04:24:26;18.60;;;12.03;;
66020;SDS011;52789;59.980;30.346;2022-10-16T04:26:57;16.23;;;11.50;;
66020;SDS011;52789;59.980;30.346;2022-10-16T04:29:26;15.87;;;11.87;;
66020;SDS011;52789;59.980;30.346;2022-10-16T04:32:16;19.27;;;11.90;;
66020;SDS011;52789;59.980;30.346;2022-10-16T04:34:57;20.63;;;12.07;;
66020;SDS011;52789;59.980;30.346;2022-10-16T04:37:29;20.00;;;10.90;;
66020;SDS011;52789;59.980;30.346;2022-10-16T04:40:01;16.20;;;11.63;;
66020;SDS011;52789;59.980;30.346;2022-10-16T04:42:29;20.47;;;11.73;;
66020;SDS011;52789;59.980;30.346;2022-10-16T04:44:55;17.90;;;12.07;;
66020;SDS011;52789;59.980;30.346;2022-10-16T04:47:20;22.20;;;11.93;;
66020;SDS011;52789;59.980;30.346;2022-10-16T04:49:55;19.50;;;12.00;;
66020;SDS011;52789;59.980;30.346;2022-10-16T04:52:24;16.17;;;10.63;;
66020;SDS011;52789;59.980;30.346;2022-10-16T04:54:51;19.07;;;12.70;;
66020;SDS011;52789;59.980;30.346;2022-10-16T04:57:23;15.50;;;11.20;;
66020;SDS011;52789;59.980;30.346;2022-10-16T05:00:03;16.37;;;12.17;;
66020;SDS011;52789;59.980;30.346;2022-10-16T05:02:38;18.60;;;11.37;;
66020;SDS011;52789;59.980;30.346;2022-10-16T05:05:14;18.20;;;10.90;;
66020;SDS011;52789;59.980;30.346;2022-10-16T05:11:42;16.03;;;10.70;;
66020;SDS011;52789;59.980;30.346;2022-10-16T05:15:07;18.87;;;10.80;;
66020;SDS011;52789;59.980;30.346;2022-10-16T05:21:50;16.27;;;10.63;;
66020;SDS011;52789;59.980;30.346;2022-10-16T05:24:42;17.90;;;10.90;;
66020;SDS011;52789;59.980;30.346;2022-10-16T05:27:09;17.63;;;10.73;;
66020;SDS011;52789;59.980;30.346;2022-10-16T05:29:35;14.37;;;11.10;;
66020;SDS011;52789;59.980;30.346;2022-10-16T05:32:01;20.07;;;10.50;;
66020;SDS011;52789;59.980;30.346;2022-10-16T05:34:30;14.03;;;10.73;;
66020;SDS011;52789;59.980;30.346;2022-10-16T05:37:01;14.40;;;10.67;;
66020;SDS011;52789;59.980;30.346;2022-10-16T05:39:29;15.70;;;11.20;;
66020;SDS011;52789;59.980;30.346;2022-10-16T05:41:55;14.10;;;10.87;;
66020;SDS011;52789;59.980;30.346;2022-10-16T05:44:20;16.97;;;10.07;;
66020;SDS011;52789;59.980;30.346;2022-10-16T05:46:46;17.27;;;11.57;;
66020;SDS011;52789;59.980;30.346;2022-10-16T05:49:12;14.80;;;10.70;;
66020;SDS011;52789;59.980;30.346;2022-10-16T05:51:38;13.40;;;9.73;;
66020;SDS011;52789;59.980;30.346;2022-10-16T05:54:03;19.43;;;11.10;;
66020;SDS011;52789;59.980;30.346;2022-10-16T05:56:29;16.33;;;9.80;;
66020;SDS011;52789;59.980;30.346;2022-10-16T05:58:54;14.50;;;9.90;;
66020;SDS011;52789;59.980;30.346;2022-10-16T06:01:20;14.03;;;10.00;;
66020;SDS011;52789;59.980;30.346;2022-10-16T06:03:51;17.50;;;11.77;;
66020;SDS011;52789;59.980;30.346;2022-10-16T06:06:25;14.03;;;11.00;;
66020;SDS011;52789;59.980;30.346;2022-10-16T06:08:54;15.97;;;9.87;;
66020;SDS011;52789;59.980;30.346;2022-10-16T06:11:22;13.60;;;10.03;;
66020;SDS011;52789;59.980;30.346;2022-10-16T06:13:49;19.50;;;10.18;;
66020;SDS011;52789;59.980;30.346;2022-10-16T06:16:16;13.67;;;9.47;;
66020;SDS011;52789;59.980;30.346;2022-10-16T06:18:41;17.70;;;10.20;;
66020;SDS011;52789;59.980;30.346;2022-10-16T06:21:08;16.77;;;9.43;;
66020;SDS011;52789;59.980;30.346;2022-10-16T06:23:35;18.65;;;10.25;;
66020;SDS011;52789;59.980;30.346;2022-10-16T06:26:05;14.83;;;9.93;;
66020;SDS011;52789;59.980;30.346;2022-10-16T06:28:31;22.30;;;11.33;;
66020;SDS011;52789;59.980;30.346;2022-10-16T06:31:01;15.63;;;10.30;;
66020;SDS011;52789;59.980;30.346;2022-10-16T06:33:27;13.67;;;9.23;;
66020;SDS011;52789;59.980;30.346;2022-10-16T06:35:53;16.47;;;10.63;;
66020;SDS011;52789;59.980;30.346;2022-10-16T06:38:24;22.63;;;10.97;;
66020;SDS011;52789;59.980;30.346;2022-10-16T06:40:50;14.17;;;9.87;;
66020;SDS011;52789;59.980;30.346;2022-10-16T06:43:15;14.27;;;9.33;;
66020;SDS011;52789;59.980;30.346;2022-10-16T06:45:41;16.33;;;10.30;;
66020;SDS011;52789;59.980;30.346;2022-10-16T06:48:06;12.60;;;9.23;;
66020;SDS011;52789;59.980;30.346;2022-10-16T06:50:32;13.13;;;10.40;;
66020;SDS011;52789;59.980;30.346;2022-10-16T06:52:57;16.63;;;10.80;;
66020;SDS011;52789;59.980;30.346;2022-10-16T06:55:23;19.03;;;10.83;;
66020;SDS011;52789;59.980;30.346;2022-10-16T06:57:49;15.17;;;10.10;;
66020;SDS011;52789;59.980;30.346;2022-10-16T07:00:15;22.23;;;10.00;;
66020;SDS011;52789;59.980;30.346;2022-10-16T07:02:40;16.40;;;9.67;;
66020;SDS011;52789;59.980;30.346;2022-10-16T07:05:06;16.33;;;9.37;;
66020;SDS011;52789;59.980;30.346;2022-10-16T07:07:35;15.00;;;9.90;;
66020;SDS011;52789;59.980;30.346;2022-10-16T07:10:00;19.88;;;10.43;;
66020;SDS011;52789;59.980;30.346;2022-10-16T07:12:26;15.33;;;9.93;;
66020;SDS011;52789;59.980;30.346;2022-10-16T07:14:51;16.23;;;10.30;;
66020;SDS011;52789;59.980;30.346;2022-10-16T07:17:17;13.43;;;9.53;;
66020;SDS011;52789;59.980;30.346;2022-10-16T07:19:43;15.47;;;9.90;;
66020;SDS011;52789;59.980;30.346;2022-10-16T07:22:08;18.57;;;10.13;;
66020;SDS011;52789;59.980;30.346;2022-10-16T07:24:34;17.10;;;10.37;;
66020;SDS011;52789;59.980;30.346;2022-10-16T07:26:59;17.60;;;10.60;;
66020;SDS011;52789;59.980;30.346;2022-10-16T07:29:25;16.73;;;9.43;;
66020;SDS011;52789;59.980;30.346;2022-10-16T07:31:50;21.33;;;11.63;;
66020;SDS011;52789;59.980;30.346;2022-10-16T07:34:16;11.33;;;9.17;;
66020;SDS011;52789;59.980;30.346;2022-10-16T07:36:43;14.67;;;10.70;;
66020;SDS011;52789;59.980;30.346;2022-10-16T07:39:09;21.10;;;12.20;;
66020;SDS011;52789;59.980;30.346;2022-10-16T07:41:34;17.50;;;10.77;;
66020;SDS011;52789;59.980;30.346;2022-10-16T07:44:10;18.87;;;9.87;;
66020;SDS011;52789;59.980;30.346;2022-10-16T07:46:43;11.73;;;8.73;;
66020;SDS011;52789;59.980;30.346;2022-10-16T07:49:11;15.50;;;9.07;;
66020;SDS011;52789;59.980;30.346;2022-10-16T07:51:37;20.17;;;11.63;;
66020;SDS011;52789;59.980;30.346;2022-10-16T07:54:04;12.93;;;9.53;;
66020;SDS011;52789;59.980;30.346;2022-10-16T07:56:30;18.53;;;10.27;;
66020;SDS011;52789;59.980;30.346;2022-10-16T07:58:55;22.10;;;12.27;;
66020;SDS011;52789;59.980;30.346;2022-10-16T08:01:27;16.27;;;10.27;;
66020;SDS011;52789;59.980;30.346;2022-10-16T08:03:56;17.03;;;11.30;;
66020;SDS011;52789;59.980;30.346;2022-10-16T08:30:51;39.00;;;16.43;;
66020;SDS011;52789;59.980;30.346;2022-10-16T08:33:19;32.77;;;15.93;;
66020;SDS011;52789;59.980;30.346;2022-10-16T08:39:18;31.90;;;18.73;;
66020;SDS011;52789;59.980;30.346;2022-10-16T08:41:52;26.57;;;14.47;;
66020;SDS011;52789;59.980;30.346;2022-10-16T08:47:31;36.23;;;13.90;;
66020;SDS011;52789;59.980;30.346;2022-10-16T08:50:09;19.07;;;11.77;;
66020;SDS011;52789;59.980;30.346;2022-10-16T08:56:00;25.90;;;12.90;;
66020;SDS011;52789;59.980;30.346;2022-10-16T08:58:44;35.33;;;20.43;;
66020;SDS011;52789;59.980;30.346;2022-10-16T09:01:39;22.50;;;11.60;;
66020;SDS011;52789;59.980;30.346;2022-10-16T09:07:04;15.93;;;10.37;;
66020;SDS011;52789;59.980;30.346;2022-10-16T09:12:28;14.27;;;9.47;;
66020;SDS011;52789;59.980;30.346;2022-10-16T09:25:29;23.80;;;13.90;;
66020;SDS011;52789;59.980;30.346;2022-10-16T09:28:01;19.52;;;11.23;;
66020;SDS011;52789;59.980;30.346;2022-10-16T09:33:45;16.13;;;10.43;;
66020;SDS011;52789;59.980;30.346;2022-10-16T09:49:54;12.60;;;9.30;;
66020;SDS011;52789;59.980;30.346;2022-10-16T09:52:38;14.33;;;9.33;;
66020;SDS011;52789;59.980;30.346;2022-10-16T10:08:27;13.13;;;9.30;;
66020;SDS011;52789;59.980;30.346;2022-10-16T10:14:38;16.00;;;9.57;;
66020;SDS011;52789;59.980;30.346;2022-10-16T10:20:31;15.30;;;8.97;;
66020;SDS011;52789;59.980;30.346;2022-10-16T10:23:56;15.50;;;8.97;;
66020;SDS011;52789;59.980;30.346;2022-10-16T10:30:10;13.53;;;8.90;;
66020;SDS011;52789;59.980;30.346;2022-10-16T10:35:52;13.10;;;9.03;;
66020;SDS011;52789;59.980;30.346;2022-10-16T10:38:46;11.23;;;8.70;;
66020;SDS011;52789;59.980;30.346;2022-10-16T10:46:47;15.07;;;8.60;;
66020;SDS011;52789;59.980;30.346;2022-10-16T11:06:17;13.40;;;8.35;;
66020;SDS011;52789;59.980;30.346;2022-10-16T11:12:27;10.77;;;7.87;;
66020;SDS011;52789;59.980;30.346;2022-10-16T11:20:34;10.67;;;7.70;;
66020;SDS011;52789;59.980;30.346;2022-10-16T11:25:36;12.33;;;7.63;;
66020;SDS011;52789;59.980;30.346;2022-10-16T11:28:20;16.42;;;10.80;;
66020;SDS011;52789;59.980;30.346;2022-10-16T11:34:21;15.57;;;8.43;;
66020;SDS011;52789;59.980;30.346;2022-10-16T11:37:20;17.27;;;10.93;;
66020;SDS011;52789;59.980;30.346;2022-10-16T11:39:50;16.30;;;10.93;;
66020;SDS011;52789;59.980;30.346;2022-10-16T11:42:22;12.03;;;9.60;;
66020;SDS011;52789;59.980;30.346;2022-10-16T11:47:52;11.40;;;8.07;;
66020;SDS011;52789;59.980;30.346;2022-10-16T11:56:05;18.87;;;9.97;;
66020;SDS011;52789;59.980;30.346;2022-10-16T11:58:39;12.43;;;8.53;;
66020;SDS011;52789;59.980;30.346;2022-10-16T12:01:51;9.87;;;8.53;;
66020;SDS011;52789;59.980;30.346;2022-10-16T12:04:59;10.50;;;8.13;;
66020;SDS011;52789;59.980;30.346;2022-10-16T12:07:41;10.77;;;8.10;;
66020;SDS011;52789;59.980;30.346;2022-10-16T12:10:26;17.30;;;10.47;;
66020;SDS011;52789;59.980;30.346;2022-10-16T12:12:53;11.33;;;8.50;;
66020;SDS011;52789;59.980;30.346;2022-10-16T12:15:32;10.90;;;8.13;;
66020;SDS011;52789;59.980;30.346;2022-10-16T12:18:01;9.80;;;8.10;;
66020;SDS011;52789;59.980;30.346;2022-10-16T12:22:56;12.88;;;8.98;;
66020;SDS011;52789;59.980;30.346;2022-10-16T12:25:31;9.57;;;7.47;;
66020;SDS011;52789;59.980;30.346;2022-10-16T12:30:40;10.80;;;8.10;;
66020;SDS011;52789;59.980;30.346;2022-10-16T12:36:09;12.73;;;8.53;;
66020;SDS011;52789;59.980;30.346;2022-10-16T12:38:46;15.20;;;10.00;;
66020;SDS011;52789;59.980;30.346;2022-10-16T12:41:36;12.33;;;8.97;;
66020;SDS011;52789;59.980;30.346;2022-10-16T12:44:05;14.10;;;8.67;;
66020;SDS011;52789;59.980;30.346;2022-10-16T12:46:48;13.87;;;8.90;;
66020;SDS011;52789;59.980;30.346;2022-10-16T12:51:53;13.60;;;8.90;;
66020;SDS011;52789;59.980;30.346;2022-10-16T12:54:35;13.33;;;9.17;;
66020;SDS011;52789;59.980;30.346;2022-10-16T12:57:13;12.67;;;9.80;;
66020;SDS011;52789;59.980;30.346;2022-10-16T13:00:00;14.03;;;8.77;;
66020;SDS011;52789;59.980;30.346;2022-10-16T13:17:07;13.37;;;9.70;;
66020;SDS011;52789;59.980;30.346;2022-10-16T13:19:42;15.80;;;9.50;;
66020;SDS011;52789;59.980;30.346;2022-10-16T13:30:19;13.83;;;9.40;;
66020;SDS011;52789;59.980;30.346;2022-10-16T13:35:23;16.70;;;10.07;;
66020;SDS011;52789;59.980;30.346;2022-10-16T13:38:02;14.73;;;10.13;;
66020;SDS011;52789;59.980;30.346;2022-10-16T13:40:57;13.53;;;9.80;;
66020;SDS011;52789;59.980;30.346;2022-10-16T13:46:16;18.67;;;10.60;;
66020;SDS011;52789;59.980;30.346;2022-10-16T13:49:02;16.87;;;12.03;;
66020;SDS011;52789;59.980;30.346;2022-10-16T13:51:29;21.07;;;13.30;;
66020;SDS011;52789;59.980;30.346;2022-10-16T13:53:56;16.87;;;11.53;;
66020;SDS011;52789;59.980;30.346;2022-10-16T13:56:25;17.53;;;11.90;;
66020;SDS011;52789;59.980;30.346;2022-10-16T13:59:05;18.83;;;13.73;;
66020;SDS011;52789;59.980;30.346;2022-10-16T14:01:52;22.20;;;13.40;;
66020;SDS011;52789;59.980;30.346;2022-10-16T14:04:21;21.70;;;11.40;;
66020;SDS011;52789;59.980;30.346;2022-10-16T14:06:49;17.13;;;11.97;;
66020;SDS011;52789;59.980;30.346;2022-10-16T14:14:23;19.70;;;11.87;;
66020;SDS011;52789;59.980;30.346;2022-10-16T14:16:49;15.17;;;10.93;;
66020;SDS011;52789;59.980;30.346;2022-10-16T14:21:48;19.20;;;13.27;;
66020;SDS011;52789;59.980;30.346;2022-10-16T14:26:55;24.37;;;14.10;;
66020;SDS011;52789;59.980;30.346;2022-10-16T14:29:23;19.77;;;13.30;;
66020;SDS011;52789;59.980;30.346;2022-10-16T14:31:54;19.50;;;13.23;;
66020;SDS011;52789;59.980;30.346;2022-10-16T14:34:23;21.33;;;13.73;;
66020;SDS011;52789;59.980;30.346;2022-10-16T14:39:20;21.50;;;13.53;;
66020;SDS011;52789;59.980;30.346;2022-10-16T14:41:49;22.57;;;15.50;;
66020;SDS011;52789;59.980;30.346;2022-10-16T14:44:26;21.63;;;13.00;;
66020;SDS011;52789;59.980;30.346;2022-10-16T14:46:56;20.93;;;14.60;;
66020;SDS011;52789;59.980;30.346;2022-10-16T14:49:24;20.63;;;13.37;;
66020;SDS011;52789;59.980;30.346;2022-10-16T14:51:50;19.53;;;14.00;;
66020;SDS011;52789;59.980;30.346;2022-10-16T14:54:17;22.23;;;14.97;;
66020;SDS011;52789;59.980;30.346;2022-10-16T14:59:29;27.00;;;15.97;;
66020;SDS011;52789;59.980;30.346;2022-10-16T15:01:55;22.47;;;15.17;;
66020;SDS011;52789;59.980;30.346;2022-10-16T15:04:21;23.47;;;16.37;;
66020;SDS011;52789;59.980;30.346;2022-10-16T15:06:50;24.27;;;15.50;;
66020;SDS011;52789;59.980;30.346;2022-10-16T15:09:18;21.37;;;13.87;;
66020;SDS011;52789;59.980;30.346;2022-10-16T15:11:43;22.63;;;14.60;;
66020;SDS011;52789;59.980;30.346;2022-10-16T15:14:12;27.07;;;15.00;;
66020;SDS011;52789;59.980;30.346;2022-10-16T15:16:38;20.93;;;14.30;;
66020;SDS011;52789;59.980;30.346;2022-10-16T15:19:04;24.03;;;15.23;;
66020;SDS011;52789;59.980;30.346;2022-10-16T15:21:30;25.13;;;14.67;;
66020;SDS011;52789;59.980;30.346;2022-10-16T15:23:57;22.63;;;13.27;;
66020;SDS011;52789;59.980;30.346;2022-10-16T15:26:24;26.20;;;16.60;;
66020;SDS011;52789;59.980;30.346;2022-10-16T15:28:51;30.20;;;15.23;;
66020;SDS011;52789;59.980;30.346;2022-10-16T15:31:17;23.50;;;14.57;;
66020;SDS011;52789;59.980;30.346;2022-10-16T15:33:42;22.60;;;15.07;;
66020;SDS011;52789;59.980;30.346;2022-10-16T15:36:08;25.33;;;15.67;;
66020;SDS011;52789;59.980;30.346;2022-10-16T15:38:35;22.70;;;14.37;;
66020;SDS011;52789;59.980;30.346;2022-10-16T15:41:01;21.93;;;15.73;;
66020;SDS011;52789;59.980;30.346;2022-10-16T15:43:26;22.27;;;14.90;;
66020;SDS011;52789;59.980;30.346;2022-10-16T15:48:30;23.67;;;16.87;;
66020;SDS011;52789;59.980;30.346;2022-10-16T15:50:56;29.20;;;17.70;;
66020;SDS011;52789;59.980;30.346;2022-10-16T15:53:22;26.87;;;17.97;;
66020;SDS011;52789;59.980;30.346;2022-10-16T15:55:47;34.10;;;18.30;;
66020;SDS011;52789;59.980;30.346;2022-10-16T15:58:13;25.90;;;16.87;;
66020;SDS011;52789;59.980;30.346;2022-10-16T16:00:38;25.07;;;17.43;;
66020;SDS011;52789;59.980;30.346;2022-10-16T16:03:04;25.23;;;15.73;;
66020;SDS011;52789;59.980;30.346;2022-10-16T16:05:37;26.80;;;17.80;;
66020;SDS011;52789;59.980;30.346;2022-10-16T16:08:06;28.33;;;17.20;;
66020;SDS011;52789;59.980;30.346;2022-10-16T16:10:31;29.57;;;17.83;;
66020;SDS011;52789;59.980;30.346;2022-10-16T16:12:57;27.33;;;17.70;;
66020;SDS011;52789;59.980;30.346;2022-10-16T16:15:24;27.47;;;17.23;;
66020;SDS011;52789;59.980;30.346;2022-10-16T16:17:49;28.47;;;18.37;;
66020;SDS011;52789;59.980;30.346;2022-10-16T16:20:15;27.90;;;17.20;;
66020;SDS011;52789;59.980;30.346;2022-10-16T16:22:42;27.92;;;17.33;;
66020;SDS011;52789;59.980;30.346;2022-10-16T16:25:08;24.73;;;17.50;;
66020;SDS011;52789;59.980;30.346;2022-10-16T16:27:34;28.10;;;18.20;;
66020;SDS011;52789;59.980;30.346;2022-10-16T16:30:00;28.50;;;16.80;;
66020;SDS011;52789;59.980;30.346;2022-10-16T16:32:29;26.63;;;17.50;;
66020;SDS011;52789;59.980;30.346;2022-10-16T16:34:55;28.37;;;17.00;;
66020;SDS011;52789;59.980;30.346;2022-10-16T16:37:20;33.40;;;18.93;;
66020;SDS011;52789;59.980;30.346;2022-10-16T16:39:48;29.42;;;16.00;;
66020;SDS011;52789;59.980;30.346;2022-10-16T16:42:13;27.97;;;18.57;;
66020;SDS011;52789;59.980;30.346;2022-10-16T16:44:39;29.37;;;18.67;;
66020;SDS011;52789;59.980;30.346;2022-10-16T16:47:05;26.00;;;16.50;;
66020;SDS011;52789;59.980;30.346;2022-10-16T16:49:31;31.23;;;18.27;;
66020;SDS011;52789;59.980;30.346;2022-10-16T16:51:57;28.47;;;17.00;;
66020;SDS011;52789;59.980;30.346;2022-10-16T16:54:22;29.97;;;17.67;;
66020;SDS011;52789;59.980;30.346;2022-10-16T16:56:48;31.33;;;18.07;;
66020;SDS011;52789;59.980;30.346;2022-10-16T16:59:14;27.43;;;17.63;;
66020;SDS011;52789;59.980;30.346;2022-10-16T17:01:45;27.40;;;17.57;;
66020;SDS011;52789;59.980;30.346;2022-10-16T17:04:11;36.13;;;20.90;;
66020;SDS011;52789;59.980;30.346;2022-10-16T17:06:38;35.37;;;18.70;;
66020;SDS011;52789;59.980;30.346;2022-10-16T17:09:05;30.45;;;19.15;;
66020;SDS011;52789;59.980;30.346;2022-10-16T17:11:32;27.40;;;18.43;;
66020;SDS011;52789;59.980;30.346;2022-10-16T17:13:58;31.67;;;18.87;;
66020;SDS011;52789;59.980;30.346;2022-10-16T17:19:26;28.40;;;17.83;;
66020;SDS011;52789;59.980;30.346;2022-10-16T17:21:52;30.97;;;18.60;;
66020;SDS011;52789;59.980;30.346;2022-10-16T17:24:17;28.20;;;19.80;;
66020;SDS011;52789;59.980;30.346;2022-10-16T17:26:45;34.23;;;18.67;;
66020;SDS011;52789;59.980;30.346;2022-10-16T17:29:13;32.55;;;18.88;;
66020;SDS011;52789;59.980;30.346;2022-10-16T17:31:39;25.20;;;17.50;;
66020;SDS011;52789;59.980;30.346;2022-10-16T17:34:06;27.33;;;16.67;;
66020;SDS011;52789;59.980;30.346;2022-10-16T17:36:35;28.05;;;17.85;;
66020;SDS011;52789;59.980;30.346;2022-10-16T17:39:03;23.43;;;15.47;;
66020;SDS011;52789;59.980;30.346;2022-10-16T17:41:32;24.67;;;16.80;;
66020;SDS011;52789;59.980;30.346;2022-10-16T17:43:58;28.37;;;17.73;;
66020;SDS011;52789;59.980;30.346;2022-10-16T17:46:24;27.07;;;16.20;;
66020;SDS011;52789;59.980;30.346;2022-10-16T17:48:51;29.53;;;18.23;;
66020;SDS011;52789;59.980;30.346;2022-10-16T17:51:19;30.10;;;18.13;;
66020;SDS011;52789;59.980;30.346;2022-10-16T17:53:47;26.95;;;17.98;;
66020;SDS011;52789;59.980;30.346;2022-10-16T17:56:26;24.57;;;17.20;;
66020;SDS011;52789;59.980;30.346;2022-10-16T17:58:54;24.43;;;17.30;;
66020;SDS011;52789;59.980;30.346;2022-10-16T18:01:27;24.90;;;17.23;;
66020;SDS011;52789;59.980;30.346;2022-10-16T18:03:59;27.23;;;17.57;;
66020;SDS011;52789;59.980;30.346;2022-10-16T18:06:30;26.10;;;16.87;;
66020;SDS011;52789;59.980;30.346;2022-10-16T18:09:01;28.10;;;18.70;;
66020;SDS011;52789;59.980;30.346;2022-10-16T18:11:28;32.10;;;18.90;;
66020;SDS011;52789;59.980;30.346;2022-10-16T18:13:55;23.57;;;16.50;;
66020;SDS011;52789;59.980;30.346;2022-10-16T18:16:22;28.10;;;17.73;;
66020;SDS011;52789;59.980;30.346;2022-10-16T18:18:49;28.03;;;17.27;;
66020;SDS011;52789;59.980;30.346;2022-10-16T18:21:16;29.43;;;17.60;;
66020;SDS011;52789;59.980;30.346;2022-10-16T18:23:42;29.47;;;20.57;;
66020;SDS011;52789;59.980;30.346;2022-10-16T18:26:09;31.03;;;19.70;;